sensor_id;sensor_type;location;lat;lon;timestamp;pressure;altitude;pressure_sealevel;temperature;humidity
61436;BME280;47304;47.456;19.160;2023-02-16T00:01:34;101666.01;;;-0.58;69.88
61436;BME280;47304;47.456;19.160;2023-02-16T00:04:12;101665.19;;;-0.60;70.01
61436;BME280;47304;47.456;19.160;2023-02-16T00:06:41;101666.51;;;-0.60;70.05
61436;BME280;47304;47.456;19.160;2023-02-16T00:09:07;101666.05;;;-0.62;69.80
61436;BME280;47304;47.456;19.160;2023-02-16T00:11:34;101667.46;;;-0.64;69.86
61436;BME280;47304;47.456;19.160;2023-02-16T00:14:02;101663.77;;;-0.66;69.88
61436;BME280;47304;47.456;19.160;2023-02-16T00:16:28;101664.95;;;-0.66;69.74
61436;BME280;47304;47.456;19.160;2023-02-16T00:18:55;101661.34;;;-0.66;69.83
61436;BME280;47304;47.456;19.160;2023-02-16T00:21:22;101661.73;;;-0.68;69.80
61436;BME280;47304;47.456;19.160;2023-02-16T00:23:48;101664.08;;;-0.71;69.95
61436;BME280;47304;47.456;19.160;2023-02-16T00:26:18;101659.52;;;-0.75;70.07
61436;BME280;47304;47.456;19.160;2023-02-16T00:28:48;101659.52;;;-0.78;70.13
61436;BME280;47304;47.456;19.160;2023-02-16T00:31:20;101655.85;;;-0.82;70.22
61436;BME280;47304;47.456;19.160;2023-02-16T00:33:47;101656.17;;;-0.84;70.27
61436;BME280;47304;47.456;19.160;2023-02-16T00:36:14;101653.17;;;-0.85;70.35
61436;BME280;47304;47.456;19.160;2023-02-16T00:38:41;101653.36;;;-0.87;70.22
61436;BME280;47304;47.456;19.160;2023-02-16T00:41:18;101652.36;;;-0.90;70.46
61436;BME280;47304;47.456;19.160;2023-02-16T00:43:46;101648.40;;;-0.92;70.39
61436;BME280;47304;47.456;19.160;2023-02-16T00:46:12;101647.92;;;-0.95;70.34
61436;BME280;47304;47.456;19.160;2023-02-16T00:48:39;101650.20;;;-0.97;70.53
61436;BME280;47304;47.456;19.160;2023-02-16T00:51:07;101649.12;;;-1.00;70.43
61436;BME280;47304;47.456;19.160;2023-02-16T00:53:50;101650.96;;;-1.03;70.65
61436;BME280;47304;47.456;19.160;2023-02-16T00:56:18;101645.63;;;-1.06;70.60
61436;BME280;47304;47.456;19.160;2023-02-16T00:58:46;101644.55;;;-1.09;70.62
61436;BME280;47304;47.456;19.160;2023-02-16T01:01:15;101642.35;;;-1.12;70.51
61436;BME280;47304;47.456;19.160;2023-02-16T01:03:43;101642.13;;;-1.15;70.38
61436;BME280;47304;47.456;19.160;2023-02-16T01:06:10;101635.92;;;-1.17;70.34
61436;BME280;47304;47.456;19.160;2023-02-16T01:08:37;101631.83;;;-1.20;70.58
61436;BME280;47304;47.456;19.160;2023-02-16T01:11:04;101633.42;;;-1.21;70.57
61436;BME280;47304;47.456;19.160;2023-02-16T01:13:47;101633.80;;;-1.23;70.64
61436;BME280;47304;47.456;19.160;2023-02-16T01:16:20;101633.27;;;-1.26;70.62
61436;BME280;47304;47.456;19.160;2023-02-16T01:18:48;101628.02;;;-1.28;70.80
61436;BME280;47304;47.456;19.160;2023-02-16T01:21:14;101629.41;;;-1.28;70.72
61436;BME280;47304;47.456;19.160;2023-02-16T01:23:41;101632.27;;;-1.29;70.70
61436;BME280;47304;47.456;19.160;2023-02-16T01:26:13;101629.66;;;-1.29;70.79
61436;BME280;47304;47.456;19.160;2023-02-16T01:28:41;101628.21;;;-1.30;70.85
61436;BME280;47304;47.456;19.160;2023-02-16T01:31:09;101629.02;;;-1.31;71.03
61436;BME280;47304;47.456;19.160;2023-02-16T01:33:36;101626.58;;;-1.31;71.04
61436;BME280;47304;47.456;19.160;2023-02-16T01:36:03;101622.60;;;-1.31;70.91
61436;BME280;47304;47.456;19.160;2023-02-16T01:38:30;101620.83;;;-1.33;70.88
61436;BME280;47304;47.456;19.160;2023-02-16T01:41:19;101618.14;;;-1.34;70.77
61436;BME280;47304;47.456;19.160;2023-02-16T01:44:06;101615.67;;;-1.35;70.81
61436;BME280;47304;47.456;19.160;2023-02-16T01:47:25;101613.36;;;-1.36;70.81
61436;BME280;47304;47.456;19.160;2023-02-16T01:49:26;101609.50;;;-1.37;70.86
61436;BME280;47304;47.456;19.160;2023-02-16T01:52:17;101610.27;;;-1.38;70.90
61436;BME280;47304;47.456;19.160;2023-02-16T01:57:44;101600.65;;;-1.41;70.79
61436;BME280;47304;47.456;19.160;2023-02-16T02:01:05;101601.50;;;-1.41;70.86
61436;BME280;47304;47.456;19.160;2023-02-16T02:03:15;101598.89;;;-1.42;70.74
61436;BME280;47304;47.456;19.160;2023-02-16T02:05:43;101591.11;;;-1.42;70.64
61436;BME280;47304;47.456;19.160;2023-02-16T02:11:08;101584.27;;;-1.45;70.39
61436;BME280;47304;47.456;19.160;2023-02-16T02:13:39;101584.49;;;-1.46;70.51
61436;BME280;47304;47.456;19.160;2023-02-16T02:16:07;101581.16;;;-1.47;70.63
61436;BME280;47304;47.456;19.160;2023-02-16T02:18:35;101578.52;;;-1.48;70.68
61436;BME280;47304;47.456;19.160;2023-02-16T02:23:55;101575.00;;;-1.52;70.57
61436;BME280;47304;47.456;19.160;2023-02-16T02:27:20;101574.30;;;-1.54;70.89
61436;BME280;47304;47.456;19.160;2023-02-16T02:43:29;101569.42;;;-1.66;70.98
61436;BME280;47304;47.456;19.160;2023-02-16T02:46:18;101567.48;;;-1.69;71.05
61436;BME280;47304;47.456;19.160;2023-02-16T02:48:46;101568.02;;;-1.71;71.05
61436;BME280;47304;47.456;19.160;2023-02-16T02:51:13;101569.61;;;-1.73;71.03
61436;BME280;47304;47.456;19.160;2023-02-16T02:53:47;101573.94;;;-1.75;71.00
61436;BME280;47304;47.456;19.160;2023-02-16T02:56:15;101575.02;;;-1.79;70.83
61436;BME280;47304;47.456;19.160;2023-02-16T02:58:43;101574.42;;;-1.83;70.92
61436;BME280;47304;47.456;19.160;2023-02-16T03:01:12;101579.55;;;-1.86;71.11
61436;BME280;47304;47.456;19.160;2023-02-16T03:03:48;101577.73;;;-1.90;71.35
61436;BME280;47304;47.456;19.160;2023-02-16T03:06:21;101580.08;;;-1.94;71.35
61436;BME280;47304;47.456;19.160;2023-02-16T03:08:54;101578.63;;;-1.97;71.19
61436;BME280;47304;47.456;19.160;2023-02-16T03:11:26;101576.71;;;-2.00;71.19
61436;BME280;47304;47.456;19.160;2023-02-16T03:14:05;101573.64;;;-2.02;71.20
61436;BME280;47304;47.456;19.160;2023-02-16T03:16:48;101574.39;;;-2.04;71.24
61436;BME280;47304;47.456;19.160;2023-02-16T03:19:17;101574.66;;;-2.05;71.48
61436;BME280;47304;47.456;19.160;2023-02-16T03:21:44;101568.41;;;-2.06;71.38
61436;BME280;47304;47.456;19.160;2023-02-16T03:24:15;101569.75;;;-2.06;71.39
61436;BME280;47304;47.456;19.160;2023-02-16T03:26:45;101567.77;;;-2.05;71.54
61436;BME280;47304;47.456;19.160;2023-02-16T03:29:14;101570.23;;;-2.04;71.68
61436;BME280;47304;47.456;19.160;2023-02-16T03:31:42;101565.61;;;-2.01;71.63
61436;BME280;47304;47.456;19.160;2023-02-16T03:34:10;101567.63;;;-1.99;71.40
61436;BME280;47304;47.456;19.160;2023-02-16T03:36:39;101559.70;;;-1.97;71.32
61436;BME280;47304;47.456;19.160;2023-02-16T03:39:07;101554.46;;;-1.96;71.47
61436;BME280;47304;47.456;19.160;2023-02-16T03:41:41;101550.52;;;-1.94;71.58
61436;BME280;47304;47.456;19.160;2023-02-16T03:44:08;101558.02;;;-1.92;71.86
61436;BME280;47304;47.456;19.160;2023-02-16T03:46:35;101556.55;;;-1.91;72.11
61436;BME280;47304;47.456;19.160;2023-02-16T03:49:01;101556.96;;;-1.87;72.19
61436;BME280;47304;47.456;19.160;2023-02-16T03:51:28;101560.63;;;-1.84;72.10
61436;BME280;47304;47.456;19.160;2023-02-16T03:53:54;101559.81;;;-1.80;72.08
61436;BME280;47304;47.456;19.160;2023-02-16T03:56:21;101558.58;;;-1.79;71.98
61436;BME280;47304;47.456;19.160;2023-02-16T03:58:47;101555.41;;;-1.77;72.08
61436;BME280;47304;47.456;19.160;2023-02-16T04:01:14;101562.00;;;-1.76;72.21
61436;BME280;47304;47.456;19.160;2023-02-16T04:03:40;101562.21;;;-1.76;72.29
61436;BME280;47304;47.456;19.160;2023-02-16T04:06:08;101556.73;;;-1.73;72.51
61436;BME280;47304;47.456;19.160;2023-02-16T04:08:35;101554.16;;;-1.70;72.49
61436;BME280;47304;47.456;19.160;2023-02-16T04:11:02;101554.01;;;-1.70;72.74
61436;BME280;47304;47.456;19.160;2023-02-16T04:13:29;101553.27;;;-1.68;73.39
61436;BME280;47304;47.456;19.160;2023-02-16T04:15:55;101551.42;;;-1.65;73.81
61436;BME280;47304;47.456;19.160;2023-02-16T04:18:22;101549.45;;;-1.64;74.40
61436;BME280;47304;47.456;19.160;2023-02-16T04:20:48;101550.28;;;-1.62;74.81
61436;BME280;47304;47.456;19.160;2023-02-16T04:23:15;101549.39;;;-1.62;74.91
61436;BME280;47304;47.456;19.160;2023-02-16T04:25:41;101546.36;;;-1.64;75.08
61436;BME280;47304;47.456;19.160;2023-02-16T04:28:08;101546.73;;;-1.63;75.30
61436;BME280;47304;47.456;19.160;2023-02-16T04:30:34;101543.77;;;-1.61;75.59
61436;BME280;47304;47.456;19.160;2023-02-16T04:33:01;101549.81;;;-1.61;75.59
61436;BME280;47304;47.456;19.160;2023-02-16T04:35:27;101551.17;;;-1.61;75.63
61436;BME280;47304;47.456;19.160;2023-02-16T04:37:54;101556.77;;;-1.62;75.78
61436;BME280;47304;47.456;19.160;2023-02-16T04:40:20;101556.42;;;-1.65;75.89
61436;BME280;47304;47.456;19.160;2023-02-16T04:42:47;101559.23;;;-1.66;76.07
61436;BME280;47304;47.456;19.160;2023-02-16T04:45:13;101565.36;;;-1.67;76.39
61436;BME280;47304;47.456;19.160;2023-02-16T04:47:40;101566.13;;;-1.68;76.50
61436;BME280;47304;47.456;19.160;2023-02-16T04:50:08;101569.20;;;-1.69;76.79
61436;BME280;47304;47.456;19.160;2023-02-16T04:52:35;101568.31;;;-1.69;77.11
61436;BME280;47304;47.456;19.160;2023-02-16T04:55:03;101566.73;;;-1.70;76.93
61436;BME280;47304;47.456;19.160;2023-02-16T04:57:30;101562.57;;;-1.71;77.10
61436;BME280;47304;47.456;19.160;2023-02-16T04:59:56;101562.84;;;-1.71;77.15
61436;BME280;47304;47.456;19.160;2023-02-16T05:02:23;101559.95;;;-1.74;77.15
61436;BME280;47304;47.456;19.160;2023-02-16T05:04:49;101558.55;;;-1.74;77.31
61436;BME280;47304;47.456;19.160;2023-02-16T05:07:16;101560.27;;;-1.71;77.49
61436;BME280;47304;47.456;19.160;2023-02-16T05:09:42;101555.41;;;-1.70;77.43
61436;BME280;47304;47.456;19.160;2023-02-16T05:12:10;101555.42;;;-1.69;77.30
61436;BME280;47304;47.456;19.160;2023-02-16T05:14:37;101552.91;;;-1.68;77.41
61436;BME280;47304;47.456;19.160;2023-02-16T05:17:03;101553.55;;;-1.69;77.24
61436;BME280;47304;47.456;19.160;2023-02-16T05:19:30;101557.52;;;-1.71;77.10
61436;BME280;47304;47.456;19.160;2023-02-16T05:21:56;101556.62;;;-1.75;77.09
61436;BME280;47304;47.456;19.160;2023-02-16T05:24:23;101555.77;;;-1.77;77.07
61436;BME280;47304;47.456;19.160;2023-02-16T05:26:51;101565.20;;;-1.77;76.96
61436;BME280;47304;47.456;19.160;2023-02-16T05:29:17;101565.95;;;-1.79;77.02
61436;BME280;47304;47.456;19.160;2023-02-16T05:31:44;101565.27;;;-1.79;77.02
61436;BME280;47304;47.456;19.160;2023-02-16T05:34:11;101559.36;;;-1.82;76.75
61436;BME280;47304;47.456;19.160;2023-02-16T05:36:37;101558.86;;;-1.84;77.08
61436;BME280;47304;47.456;19.160;2023-02-16T05:39:04;101556.13;;;-1.84;77.29
61436;BME280;47304;47.456;19.160;2023-02-16T05:41:31;101558.53;;;-1.84;77.44
61436;BME280;47304;47.456;19.160;2023-02-16T05:43:59;101557.53;;;-1.84;77.63
61436;BME280;47304;47.456;19.160;2023-02-16T05:46:27;101557.86;;;-1.84;77.67
61436;BME280;47304;47.456;19.160;2023-02-16T05:48:54;101556.36;;;-1.83;77.73
61436;BME280;47304;47.456;19.160;2023-02-16T05:51:21;101554.63;;;-1.84;77.78
61436;BME280;47304;47.456;19.160;2023-02-16T05:53:47;101553.65;;;-1.85;77.81
61436;BME280;47304;47.456;19.160;2023-02-16T05:56:15;101555.36;;;-1.85;78.01
61436;BME280;47304;47.456;19.160;2023-02-16T05:58:42;101561.00;;;-1.86;77.79
61436;BME280;47304;47.456;19.160;2023-02-16T06:01:09;101560.52;;;-1.85;77.84
61436;BME280;47304;47.456;19.160;2023-02-16T06:03:36;101555.45;;;-1.84;78.11
61436;BME280;47304;47.456;19.160;2023-02-16T06:06:03;101551.64;;;-1.82;78.27
61436;BME280;47304;47.456;19.160;2023-02-16T06:08:30;101543.89;;;-1.80;78.30
61436;BME280;47304;47.456;19.160;2023-02-16T06:10:56;101543.11;;;-1.76;78.39
61436;BME280;47304;47.456;19.160;2023-02-16T06:13:23;101544.16;;;-1.71;78.50
61436;BME280;47304;47.456;19.160;2023-02-16T06:15:53;101550.13;;;-1.66;78.34
61436;BME280;47304;47.456;19.160;2023-02-16T06:18:20;101551.92;;;-1.63;78.16
61436;BME280;47304;47.456;19.160;2023-02-16T06:20:47;101550.05;;;-1.60;78.12
61436;BME280;47304;47.456;19.160;2023-02-16T06:23:14;101546.58;;;-1.61;77.97
61436;BME280;47304;47.456;19.160;2023-02-16T06:25:42;101546.86;;;-1.59;78.01
61436;BME280;47304;47.456;19.160;2023-02-16T06:28:10;101552.30;;;-1.60;78.00
61436;BME280;47304;47.456;19.160;2023-02-16T06:30:36;101548.77;;;-1.59;78.19
61436;BME280;47304;47.456;19.160;2023-02-16T06:33:03;101543.61;;;-1.56;78.30
61436;BME280;47304;47.456;19.160;2023-02-16T06:35:30;101549.94;;;-1.51;78.48
61436;BME280;47304;47.456;19.160;2023-02-16T06:37:56;101550.65;;;-1.46;78.59
61436;BME280;47304;47.456;19.160;2023-02-16T06:40:23;101550.56;;;-1.39;78.43
61436;BME280;47304;47.456;19.160;2023-02-16T06:42:50;101548.90;;;-1.36;78.16
61436;BME280;47304;47.456;19.160;2023-02-16T06:45:16;101557.18;;;-1.30;78.34
61436;BME280;47304;47.456;19.160;2023-02-16T06:47:43;101553.23;;;-1.25;78.29
61436;BME280;47304;47.456;19.160;2023-02-16T06:50:10;101549.43;;;-1.20;78.29
61436;BME280;47304;47.456;19.160;2023-02-16T06:52:36;101545.85;;;-1.14;78.34
61436;BME280;47304;47.456;19.160;2023-02-16T06:55:03;101546.75;;;-1.11;78.04
61436;BME280;47304;47.456;19.160;2023-02-16T06:57:31;101546.92;;;-1.08;77.89
61436;BME280;47304;47.456;19.160;2023-02-16T06:59:57;101545.36;;;-1.06;78.01
61436;BME280;47304;47.456;19.160;2023-02-16T07:02:24;101539.60;;;-1.02;78.08
61436;BME280;47304;47.456;19.160;2023-02-16T07:04:51;101540.60;;;-0.97;77.97
61436;BME280;47304;47.456;19.160;2023-02-16T07:07:17;101537.97;;;-0.92;77.98
61436;BME280;47304;47.456;19.160;2023-02-16T07:09:44;101538.45;;;-0.88;77.98
61436;BME280;47304;47.456;19.160;2023-02-16T07:12:10;101530.27;;;-0.84;77.70
61436;BME280;47304;47.456;19.160;2023-02-16T07:14:37;101537.77;;;-0.80;77.61
61436;BME280;47304;47.456;19.160;2023-02-16T07:17:03;101530.24;;;-0.73;77.68
61436;BME280;47304;47.456;19.160;2023-02-16T07:19:30;101531.14;;;-0.67;77.62
61436;BME280;47304;47.456;19.160;2023-02-16T07:21:58;101536.91;;;-0.60;77.55
61436;BME280;47304;47.456;19.160;2023-02-16T07:24:24;101534.20;;;-0.54;77.36
61436;BME280;47304;47.456;19.160;2023-02-16T07:26:51;101536.41;;;-0.49;77.49
61436;BME280;47304;47.456;19.160;2023-02-16T07:29:18;101540.44;;;-0.45;77.35
61436;BME280;47304;47.456;19.160;2023-02-16T07:31:44;101538.23;;;-0.39;77.35
61436;BME280;47304;47.456;19.160;2023-02-16T07:34:11;101537.91;;;-0.36;77.12
61436;BME280;47304;47.456;19.160;2023-02-16T07:36:38;101535.88;;;-0.33;77.00
61436;BME280;47304;47.456;19.160;2023-02-16T07:39:04;101534.63;;;-0.31;76.69
61436;BME280;47304;47.456;19.160;2023-02-16T07:41:31;101540.35;;;-0.27;77.01
61436;BME280;47304;47.456;19.160;2023-02-16T07:43:57;101539.16;;;-0.21;76.74
61436;BME280;47304;47.456;19.160;2023-02-16T07:46:24;101534.90;;;-0.18;76.67
61436;BME280;47304;47.456;19.160;2023-02-16T07:48:50;101534.85;;;-0.10;76.86
61436;BME280;47304;47.456;19.160;2023-02-16T07:51:25;101533.58;;;0.00;76.71
61436;BME280;47304;47.456;19.160;2023-02-16T07:53:52;101534.05;;;0.14;76.88
61436;BME280;47304;47.456;19.160;2023-02-16T07:56:21;101529.17;;;0.27;76.53
61436;BME280;47304;47.456;19.160;2023-02-16T07:58:50;101527.76;;;0.38;76.36
61436;BME280;47304;47.456;19.160;2023-02-16T08:01:17;101535.61;;;0.49;76.31
61436;BME280;47304;47.456;19.160;2023-02-16T08:03:44;101533.42;;;0.59;75.90
61436;BME280;47304;47.456;19.160;2023-02-16T08:06:11;101532.61;;;0.69;75.68
61436;BME280;47304;47.456;19.160;2023-02-16T08:08:38;101536.02;;;0.77;75.34
61436;BME280;47304;47.456;19.160;2023-02-16T08:13:35;101536.70;;;0.95;75.48
61436;BME280;47304;47.456;19.160;2023-02-16T08:16:02;101536.09;;;1.02;75.23
61436;BME280;47304;47.456;19.160;2023-02-16T08:18:29;101534.35;;;1.11;75.12
61436;BME280;47304;47.456;19.160;2023-02-16T08:20:55;101538.33;;;1.21;74.75
61436;BME280;47304;47.456;19.160;2023-02-16T08:23:30;101542.55;;;1.31;74.53
61436;BME280;47304;47.456;19.160;2023-02-16T08:25:57;101546.95;;;1.36;74.13
61436;BME280;47304;47.456;19.160;2023-02-16T08:28:23;101541.43;;;1.45;74.45
61436;BME280;47304;47.456;19.160;2023-02-16T08:30:50;101542.64;;;1.55;74.20
61436;BME280;47304;47.456;19.160;2023-02-16T08:33:16;101545.76;;;1.64;74.30
61436;BME280;47304;47.456;19.160;2023-02-16T08:35:43;101541.42;;;1.77;74.35
61436;BME280;47304;47.456;19.160;2023-02-16T08:38:09;101545.83;;;1.88;73.95
61436;BME280;47304;47.456;19.160;2023-02-16T08:40:36;101543.80;;;1.99;73.78
61436;BME280;47304;47.456;19.160;2023-02-16T08:43:02;101546.22;;;2.12;73.40
61436;BME280;47304;47.456;19.160;2023-02-16T08:45:29;101548.34;;;2.26;73.29
61436;BME280;47304;47.456;19.160;2023-02-16T08:47:55;101547.64;;;2.33;72.52
61436;BME280;47304;47.456;19.160;2023-02-16T08:50:22;101545.63;;;2.37;72.46
61436;BME280;47304;47.456;19.160;2023-02-16T08:52:48;101547.86;;;2.47;72.70
61436;BME280;47304;47.456;19.160;2023-02-16T08:55:15;101550.58;;;2.63;72.94
61436;BME280;47304;47.456;19.160;2023-02-16T08:57:41;101550.71;;;2.84;72.51
61436;BME280;47304;47.456;19.160;2023-02-16T09:00:08;101546.73;;;3.08;72.13
61436;BME280;47304;47.456;19.160;2023-02-16T09:02:35;101544.19;;;3.38;71.67
61436;BME280;47304;47.456;19.160;2023-02-16T09:05:01;101541.06;;;3.76;70.99
61436;BME280;47304;47.456;19.160;2023-02-16T09:07:28;101538.36;;;4.24;69.76
61436;BME280;47304;47.456;19.160;2023-02-16T09:09:54;101538.43;;;4.70;68.78
61436;BME280;47304;47.456;19.160;2023-02-16T09:12:21;101533.05;;;5.13;68.04
61436;BME280;47304;47.456;19.160;2023-02-16T09:14:47;101531.05;;;5.82;66.88
61436;BME280;47304;47.456;19.160;2023-02-16T09:17:14;101527.06;;;6.91;65.32
61436;BME280;47304;47.456;19.160;2023-02-16T09:19:41;101523.18;;;8.05;62.91
61436;BME280;47304;47.456;19.160;2023-02-16T09:22:07;101509.77;;;9.89;60.51
61436;BME280;47304;47.456;19.160;2023-02-16T09:24:34;101507.48;;;12.37;56.86
61436;BME280;47304;47.456;19.160;2023-02-16T09:27:00;101501.59;;;14.87;52.15
61436;BME280;47304;47.456;19.160;2023-02-16T09:29:27;101493.94;;;17.19;47.82
61436;BME280;47304;47.456;19.160;2023-02-16T09:31:53;101491.11;;;19.24;43.07
61436;BME280;47304;47.456;19.160;2023-02-16T09:34:21;101488.39;;;21.18;39.77
61436;BME280;47304;47.456;19.160;2023-02-16T09:36:48;101486.12;;;22.84;35.05
61436;BME280;47304;47.456;19.160;2023-02-16T09:39:16;101483.90;;;24.27;33.35
61436;BME280;47304;47.456;19.160;2023-02-16T09:45:14;101479.58;;;27.25;27.81
61436;BME280;47304;47.456;19.160;2023-02-16T09:47:44;101472.95;;;28.76;26.06
61436;BME280;47304;47.456;19.160;2023-02-16T09:50:12;101471.09;;;29.84;24.14
61436;BME280;47304;47.456;19.160;2023-02-16T09:52:50;101472.80;;;30.81;23.14
61436;BME280;47304;47.456;19.160;2023-02-16T09:55:19;101472.96;;;31.29;20.73
61436;BME280;47304;47.456;19.160;2023-02-16T10:08:20;101465.14;;;33.36;17.74
61436;BME280;47304;47.456;19.160;2023-02-16T10:10:59;101465.25;;;33.76;16.87
61436;BME280;47304;47.456;19.160;2023-02-16T10:13:44;101467.30;;;34.20;16.58
61436;BME280;47304;47.456;19.160;2023-02-16T10:16:19;101459.55;;;34.69;15.52
61436;BME280;47304;47.456;19.160;2023-02-16T10:18:50;101457.55;;;34.67;15.24
61436;BME280;47304;47.456;19.160;2023-02-16T10:21:23;101458.27;;;34.32;14.71
61436;BME280;47304;47.456;19.160;2023-02-16T10:23:59;101458.41;;;33.82;14.75
61436;BME280;47304;47.456;19.160;2023-02-16T10:26:35;101456.26;;;33.61;15.00
61436;BME280;47304;47.456;19.160;2023-02-16T10:29:06;101451.13;;;34.09;15.08
61436;BME280;47304;47.456;19.160;2023-02-16T10:31:38;101451.17;;;34.93;14.14
61436;BME280;47304;47.456;19.160;2023-02-16T10:34:16;101448.75;;;35.31;13.84
61436;BME280;47304;47.456;19.160;2023-02-16T10:39:38;101443.98;;;36.64;13.29
61436;BME280;47304;47.456;19.160;2023-02-16T10:44:55;101443.66;;;38.94;11.93
61436;BME280;47304;47.456;19.160;2023-02-16T10:47:34;101440.09;;;39.55;11.30
61436;BME280;47304;47.456;19.160;2023-02-16T10:50:31;101438.11;;;39.85;11.02
61436;BME280;47304;47.456;19.160;2023-02-16T10:53:03;101437.38;;;39.80;10.71
61436;BME280;47304;47.456;19.160;2023-02-16T10:55:32;101430.58;;;39.67;10.70
61436;BME280;47304;47.456;19.160;2023-02-16T10:58:00;101427.23;;;39.80;10.78
61436;BME280;47304;47.456;19.160;2023-02-16T11:00:46;101422.42;;;39.72;10.26
61436;BME280;47304;47.456;19.160;2023-02-16T11:03:15;101417.95;;;38.81;10.82
61436;BME280;47304;47.456;19.160;2023-02-16T11:05:42;101415.77;;;38.19;11.03
61436;BME280;47304;47.456;19.160;2023-02-16T11:08:09;101413.80;;;37.98;11.51
61436;BME280;47304;47.456;19.160;2023-02-16T11:10:48;101407.68;;;37.95;11.24
61436;BME280;47304;47.456;19.160;2023-02-16T11:13:23;101404.45;;;37.09;11.52
61436;BME280;47304;47.456;19.160;2023-02-16T11:15:52;101403.17;;;36.18;11.77
61436;BME280;47304;47.456;19.160;2023-02-16T11:18:32;101405.69;;;35.42;12.19
61436;BME280;47304;47.456;19.160;2023-02-16T11:20:59;101402.86;;;35.02;12.53
61436;BME280;47304;47.456;19.160;2023-02-16T11:23:56;101400.88;;;34.55;13.05
61436;BME280;47304;47.456;19.160;2023-02-16T11:26:25;101398.05;;;33.64;13.64
61436;BME280;47304;47.456;19.160;2023-02-16T11:28:52;101391.85;;;31.88;14.50
61436;BME280;47304;47.456;19.160;2023-02-16T11:31:32;101391.98;;;29.54;16.24
61436;BME280;47304;47.456;19.160;2023-02-16T11:34:05;101391.91;;;27.42;18.08
61436;BME280;47304;47.456;19.160;2023-02-16T11:39:22;101384.96;;;24.17;21.44
61436;BME280;47304;47.456;19.160;2023-02-16T11:41:54;101382.72;;;23.38;22.18
61436;BME280;47304;47.456;19.160;2023-02-16T11:46:52;101376.67;;;24.83;21.17
61436;BME280;47304;47.456;19.160;2023-02-16T11:49:25;101371.39;;;25.97;20.27
61436;BME280;47304;47.456;19.160;2023-02-16T11:51:53;101369.41;;;26.42;19.53
61436;BME280;47304;47.456;19.160;2023-02-16T11:54:20;101369.52;;;26.21;19.67
61436;BME280;47304;47.456;19.160;2023-02-16T11:57:04;101370.20;;;25.74;20.02
61436;BME280;47304;47.456;19.160;2023-02-16T11:59:35;101367.00;;;25.07;20.49
61436;BME280;47304;47.456;19.160;2023-02-16T12:02:27;101363.42;;;24.28;20.99
61436;BME280;47304;47.456;19.160;2023-02-16T12:13:49;101338.14;;;22.86;22.80
61436;BME280;47304;47.456;19.160;2023-02-16T12:16:43;101336.19;;;22.08;23.64
61436;BME280;47304;47.456;19.160;2023-02-16T12:19:41;101336.80;;;21.31;24.81
61436;BME280;47304;47.456;19.160;2023-02-16T12:22:47;101330.21;;;20.60;25.64
61436;BME280;47304;47.456;19.160;2023-02-16T12:25:25;101325.70;;;19.77;26.78
61436;BME280;47304;47.456;19.160;2023-02-16T12:28:19;101319.63;;;19.13;27.77
61436;BME280;47304;47.456;19.160;2023-02-16T12:30:59;101321.17;;;18.08;29.17
61436;BME280;47304;47.456;19.160;2023-02-16T12:43:49;101320.20;;;14.76;35.13
61436;BME280;47304;47.456;19.160;2023-02-16T12:46:21;101315.27;;;14.53;35.87
61436;BME280;47304;47.456;19.160;2023-02-16T12:48:57;101310.20;;;14.28;36.29
61436;BME280;47304;47.456;19.160;2023-02-16T12:51:36;101304.03;;;14.03;37.13
61436;BME280;47304;47.456;19.160;2023-02-16T12:54:32;101299.09;;;13.74;37.40
61436;BME280;47304;47.456;19.160;2023-02-16T12:57:01;101295.35;;;13.54;38.28
61436;BME280;47304;47.456;19.160;2023-02-16T12:59:34;101290.55;;;13.37;38.63
61436;BME280;47304;47.456;19.160;2023-02-16T13:02:13;101292.78;;;13.24;39.14
61436;BME280;47304;47.456;19.160;2023-02-16T13:04:57;101289.03;;;13.11;39.43
61436;BME280;47304;47.456;19.160;2023-02-16T13:07:36;101287.70;;;12.86;40.07
61436;BME280;47304;47.456;19.160;2023-02-16T13:10:26;101284.80;;;12.66;40.31
61436;BME280;47304;47.456;19.160;2023-02-16T13:13:03;101277.81;;;12.44;40.87
61436;BME280;47304;47.456;19.160;2023-02-16T13:15:37;101272.80;;;12.30;41.23
61436;BME280;47304;47.456;19.160;2023-02-16T13:18:27;101270.74;;;12.13;41.59
61436;BME280;47304;47.456;19.160;2023-02-16T13:21:03;101268.06;;;12.07;42.50
61436;BME280;47304;47.456;19.160;2023-02-16T13:26:48;101262.11;;;12.11;42.55
61436;BME280;47304;47.456;19.160;2023-02-16T13:45:52;101246.95;;;12.02;42.95
61436;BME280;47304;47.456;19.160;2023-02-16T13:48:28;101241.91;;;11.91;43.49
61436;BME280;47304;47.456;19.160;2023-02-16T13:51:05;101238.48;;;11.79;43.77
61436;BME280;47304;47.456;19.160;2023-02-16T13:53:39;101235.61;;;11.70;44.03
61436;BME280;47304;47.456;19.160;2023-02-16T13:56:13;101238.67;;;11.61;44.53
61436;BME280;47304;47.456;19.160;2023-02-16T13:58:40;101238.81;;;11.58;44.51
61436;BME280;47304;47.456;19.160;2023-02-16T14:03:52;101234.65;;;11.44;45.04
61436;BME280;47304;47.456;19.160;2023-02-16T14:11:59;101231.38;;;11.15;45.73
61436;BME280;47304;47.456;19.160;2023-02-16T14:14:32;101230.40;;;11.07;46.10
61436;BME280;47304;47.456;19.160;2023-02-16T14:17:32;101231.35;;;10.97;46.30
61436;BME280;47304;47.456;19.160;2023-02-16T14:28:12;101220.50;;;10.69;47.13
61436;BME280;47304;47.456;19.160;2023-02-16T14:30:53;101223.64;;;10.55;47.37
61436;BME280;47304;47.456;19.160;2023-02-16T14:36:21;101228.98;;;10.24;48.25
61436;BME280;47304;47.456;19.160;2023-02-16T14:38:48;101225.14;;;10.14;48.51
61436;BME280;47304;47.456;19.160;2023-02-16T14:43:50;101231.67;;;9.96;49.18
61436;BME280;47304;47.456;19.160;2023-02-16T14:59:55;101219.42;;;9.42;51.43
61436;BME280;47304;47.456;19.160;2023-02-16T15:02:30;101222.54;;;9.31;52.26